sensor_id;sensor_type;location;lat;lon;timestamp;P1;durP1;ratioP1;P2;durP2;ratioP2
67640;SDS011;54434;50.096;20.082;2022-07-06T00:01:29;8.10;;;6.50;;
67640;SDS011;54434;50.096;20.082;2022-07-06T00:04:06;8.00;;;6.40;;
67640;SDS011;54434;50.096;20.082;2022-07-06T00:06:43;9.20;;;6.50;;
67640;SDS011;54434;50.096;20.082;2022-07-06T00:09:19;6.50;;;5.80;;
67640;SDS011;54434;50.096;20.082;2022-07-06T00:11:56;9.10;;;6.10;;
67640;SDS011;54434;50.096;20.082;2022-07-06T00:14:32;6.80;;;5.70;;
67640;SDS011;54434;50.096;20.082;2022-07-06T00:17:09;6.90;;;5.30;;
67640;SDS011;54434;50.096;20.082;2022-07-06T00:19:45;7.10;;;5.00;;
67640;SDS011;54434;50.096;20.082;2022-07-06T00:22:22;9.40;;;5.80;;
67640;SDS011;54434;50.096;20.082;2022-07-06T00:24:58;6.20;;;4.80;;
67640;SDS011;54434;50.096;20.082;2022-07-06T00:27:34;9.00;;;5.60;;
67640;SDS011;54434;50.096;20.082;2022-07-06T00:30:12;7.40;;;4.80;;
67640;SDS011;54434;50.096;20.082;2022-07-06T00:32:48;6.60;;;5.40;;
67640;SDS011;54434;50.096;20.082;2022-07-06T00:35:25;6.30;;;5.30;;
67640;SDS011;54434;50.096;20.082;2022-07-06T00:38:01;6.90;;;5.70;;
67640;SDS011;54434;50.096;20.082;2022-07-06T00:40:37;8.30;;;6.00;;
67640;SDS011;54434;50.096;20.082;2022-07-06T00:43:14;7.50;;;6.00;;
67640;SDS011;54434;50.096;20.082;2022-07-06T00:45:51;7.10;;;5.90;;
67640;SDS011;54434;50.096;20.082;2022-07-06T00:48:27;8.20;;;5.30;;
67640;SDS011;54434;50.096;20.082;2022-07-06T00:51:03;6.50;;;5.60;;
67640;SDS011;54434;50.096;20.082;2022-07-06T00:53:40;6.10;;;5.00;;
67640;SDS011;54434;50.096;20.082;2022-07-06T00:56:17;7.00;;;5.40;;
67640;SDS011;54434;50.096;20.082;2022-07-06T00:58:53;7.00;;;5.30;;
67640;SDS011;54434;50.096;20.082;2022-07-06T01:01:30;6.50;;;5.50;;
67640;SDS011;54434;50.096;20.082;2022-07-06T01:04:07;6.90;;;5.60;;
67640;SDS011;54434;50.096;20.082;2022-07-06T01:06:44;6.70;;;5.60;;
67640;SDS011;54434;50.096;20.082;2022-07-06T01:09:21;6.70;;;6.00;;
67640;SDS011;54434;50.096;20.082;2022-07-06T01:11:57;9.40;;;6.70;;
67640;SDS011;54434;50.096;20.082;2022-07-06T01:14:35;9.10;;;5.90;;
67640;SDS011;54434;50.096;20.082;2022-07-06T01:17:12;7.80;;;6.50;;
67640;SDS011;54434;50.096;20.082;2022-07-06T01:19:50;8.80;;;6.20;;
67640;SDS011;54434;50.096;20.082;2022-07-06T01:22:26;8.80;;;6.80;;
67640;SDS011;54434;50.096;20.082;2022-07-06T01:25:02;8.50;;;6.20;;
67640;SDS011;54434;50.096;20.082;2022-07-06T01:27:40;7.80;;;6.30;;
67640;SDS011;54434;50.096;20.082;2022-07-06T01:30:19;8.30;;;6.70;;
67640;SDS011;54434;50.096;20.082;2022-07-06T01:32:55;8.10;;;6.30;;
67640;SDS011;54434;50.096;20.082;2022-07-06T01:35:33;7.40;;;6.30;;
67640;SDS011;54434;50.096;20.082;2022-07-06T01:38:12;8.10;;;6.80;;
67640;SDS011;54434;50.096;20.082;2022-07-06T01:40:48;10.10;;;6.90;;
67640;SDS011;54434;50.096;20.082;2022-07-06T01:43:24;8.80;;;7.10;;
67640;SDS011;54434;50.096;20.082;2022-07-06T01:46:01;9.30;;;7.30;;
67640;SDS011;54434;50.096;20.082;2022-07-06T01:48:37;8.50;;;7.40;;
67640;SDS011;54434;50.096;20.082;2022-07-06T01:51:13;9.90;;;7.60;;
67640;SDS011;54434;50.096;20.082;2022-07-06T01:53:52;8.80;;;7.20;;
67640;SDS011;54434;50.096;20.082;2022-07-06T01:56:28;10.20;;;7.60;;
67640;SDS011;54434;50.096;20.082;2022-07-06T01:59:07;7.70;;;6.80;;
67640;SDS011;54434;50.096;20.082;2022-07-06T02:01:44;8.10;;;7.00;;
67640;SDS011;54434;50.096;20.082;2022-07-06T02:04:20;9.40;;;6.50;;
67640;SDS011;54434;50.096;20.082;2022-07-06T02:06:56;15.20;;;7.00;;
67640;SDS011;54434;50.096;20.082;2022-07-06T02:09:32;9.10;;;6.90;;
67640;SDS011;54434;50.096;20.082;2022-07-06T02:12:09;8.10;;;6.90;;
67640;SDS011;54434;50.096;20.082;2022-07-06T02:14:45;7.50;;;6.50;;
67640;SDS011;54434;50.096;20.082;2022-07-06T02:17:22;8.00;;;5.90;;
67640;SDS011;54434;50.096;20.082;2022-07-06T02:19:58;10.40;;;7.00;;
67640;SDS011;54434;50.096;20.082;2022-07-06T02:22:34;9.10;;;6.20;;
67640;SDS011;54434;50.096;20.082;2022-07-06T02:25:11;8.60;;;6.70;;
67640;SDS011;54434;50.096;20.082;2022-07-06T02:27:48;9.70;;;6.70;;
67640;SDS011;54434;50.096;20.082;2022-07-06T02:30:24;9.80;;;6.30;;
67640;SDS011;54434;50.096;20.082;2022-07-06T02:33:00;8.50;;;6.40;;
67640;SDS011;54434;50.096;20.082;2022-07-06T02:35:37;9.10;;;6.60;;
67640;SDS011;54434;50.096;20.082;2022-07-06T02:38:16;8.20;;;7.10;;
67640;SDS011;54434;50.096;20.082;2022-07-06T02:40:53;7.50;;;6.60;;
67640;SDS011;54434;50.096;20.082;2022-07-06T02:43:29;8.30;;;7.30;;
67640;SDS011;54434;50.096;20.082;2022-07-06T02:46:05;11.10;;;7.50;;
67640;SDS011;54434;50.096;20.082;2022-07-06T02:48:42;8.10;;;7.10;;
67640;SDS011;54434;50.096;20.082;2022-07-06T02:51:18;9.80;;;8.00;;
67640;SDS011;54434;50.096;20.082;2022-07-06T02:53:54;9.50;;;7.70;;
67640;SDS011;54434;50.096;20.082;2022-07-06T02:56:30;8.40;;;7.50;;
67640;SDS011;54434;50.096;20.082;2022-07-06T02:59:06;12.20;;;8.00;;
67640;SDS011;54434;50.096;20.082;2022-07-06T03:01:47;9.90;;;7.80;;
67640;SDS011;54434;50.096;20.082;2022-07-06T03:04:23;8.50;;;6.40;;
67640;SDS011;54434;50.096;20.082;2022-07-06T03:06:59;7.80;;;6.00;;
67640;SDS011;54434;50.096;20.082;2022-07-06T03:09:36;8.70;;;7.30;;
67640;SDS011;54434;50.096;20.082;2022-07-06T03:12:13;8.30;;;6.70;;
67640;SDS011;54434;50.096;20.082;2022-07-06T03:14:50;11.30;;;8.20;;
67640;SDS011;54434;50.096;20.082;2022-07-06T03:17:26;11.80;;;8.70;;
67640;SDS011;54434;50.096;20.082;2022-07-06T03:20:04;11.00;;;8.70;;
67640;SDS011;54434;50.096;20.082;2022-07-06T03:22:41;10.50;;;8.70;;
67640;SDS011;54434;50.096;20.082;2022-07-06T03:25:19;10.80;;;8.40;;
67640;SDS011;54434;50.096;20.082;2022-07-06T03:27:56;12.20;;;8.30;;
67640;SDS011;54434;50.096;20.082;2022-07-06T03:30:32;10.70;;;7.30;;
67640;SDS011;54434;50.096;20.082;2022-07-06T03:33:08;10.30;;;7.60;;
67640;SDS011;54434;50.096;20.082;2022-07-06T03:35:44;8.80;;;7.20;;
67640;SDS011;54434;50.096;20.082;2022-07-06T03:38:20;8.80;;;7.00;;
67640;SDS011;54434;50.096;20.082;2022-07-06T03:40:58;10.90;;;7.30;;
67640;SDS011;54434;50.096;20.082;2022-07-06T03:43:34;9.10;;;7.10;;
67640;SDS011;54434;50.096;20.082;2022-07-06T03:46:11;9.70;;;6.80;;
67640;SDS011;54434;50.096;20.082;2022-07-06T03:48:48;10.30;;;6.40;;
67640;SDS011;54434;50.096;20.082;2022-07-06T03:51:24;11.90;;;6.10;;
67640;SDS011;54434;50.096;20.082;2022-07-06T03:54:01;9.30;;;7.40;;
67640;SDS011;54434;50.096;20.082;2022-07-06T03:56:37;8.80;;;6.30;;
67640;SDS011;54434;50.096;20.082;2022-07-06T03:59:17;8.70;;;6.70;;
67640;SDS011;54434;50.096;20.082;2022-07-06T04:01:53;10.30;;;7.00;;
67640;SDS011;54434;50.096;20.082;2022-07-06T04:04:29;9.10;;;7.00;;
67640;SDS011;54434;50.096;20.082;2022-07-06T04:07:07;10.20;;;7.40;;
67640;SDS011;54434;50.096;20.082;2022-07-06T04:09:43;12.20;;;7.60;;
67640;SDS011;54434;50.096;20.082;2022-07-06T04:12:19;10.50;;;7.40;;
67640;SDS011;54434;50.096;20.082;2022-07-06T04:15:00;8.80;;;6.70;;
67640;SDS011;54434;50.096;20.082;2022-07-06T04:17:36;9.20;;;6.80;;
67640;SDS011;54434;50.096;20.082;2022-07-06T04:20:36;10.50;;;7.70;;
67640;SDS011;54434;50.096;20.082;2022-07-06T04:23:12;10.40;;;7.50;;
67640;SDS011;54434;50.096;20.082;2022-07-06T04:25:48;8.80;;;7.40;;
67640;SDS011;54434;50.096;20.082;2022-07-06T04:28:25;10.10;;;6.70;;
67640;SDS011;54434;50.096;20.082;2022-07-06T04:31:01;7.40;;;6.00;;
67640;SDS011;54434;50.096;20.082;2022-07-06T04:33:38;7.80;;;6.10;;
67640;SDS011;54434;50.096;20.082;2022-07-06T04:36:14;8.90;;;6.00;;
67640;SDS011;54434;50.096;20.082;2022-07-06T04:38:51;7.00;;;5.20;;
67640;SDS011;54434;50.096;20.082;2022-07-06T04:41:27;6.70;;;5.60;;
67640;SDS011;54434;50.096;20.082;2022-07-06T04:44:04;8.30;;;4.90;;
67640;SDS011;54434;50.096;20.082;2022-07-06T04:46:41;6.90;;;4.80;;
67640;SDS011;54434;50.096;20.082;2022-07-06T04:49:17;6.20;;;4.80;;
67640;SDS011;54434;50.096;20.082;2022-07-06T04:51:53;7.20;;;4.40;;
67640;SDS011;54434;50.096;20.082;2022-07-06T04:54:29;12.20;;;4.80;;
67640;SDS011;54434;50.096;20.082;2022-07-06T04:57:07;8.10;;;4.60;;
67640;SDS011;54434;50.096;20.082;2022-07-06T04:59:45;6.60;;;4.70;;
67640;SDS011;54434;50.096;20.082;2022-07-06T05:02:21;6.20;;;4.20;;
67640;SDS011;54434;50.096;20.082;2022-07-06T05:04:58;6.30;;;3.90;;
67640;SDS011;54434;50.096;20.082;2022-07-06T05:07:34;5.70;;;3.70;;
67640;SDS011;54434;50.096;20.082;2022-07-06T05:10:13;6.60;;;4.10;;
67640;SDS011;54434;50.096;20.082;2022-07-06T05:12:51;7.80;;;3.90;;
67640;SDS011;54434;50.096;20.082;2022-07-06T05:15:28;4.70;;;3.60;;
67640;SDS011;54434;50.096;20.082;2022-07-06T05:18:05;6.20;;;3.30;;
67640;SDS011;54434;50.096;20.082;2022-07-06T05:20:41;4.10;;;3.30;;
67640;SDS011;54434;50.096;20.082;2022-07-06T05:23:17;6.50;;;3.20;;
67640;SDS011;54434;50.096;20.082;2022-07-06T05:25:54;5.20;;;2.90;;
67640;SDS011;54434;50.096;20.082;2022-07-06T05:28:30;4.60;;;3.20;;
67640;SDS011;54434;50.096;20.082;2022-07-06T05:31:10;3.70;;;2.80;;
67640;SDS011;54434;50.096;20.082;2022-07-06T05:33:46;4.90;;;2.90;;
67640;SDS011;54434;50.096;20.082;2022-07-06T05:36:22;5.30;;;2.70;;
67640;SDS011;54434;50.096;20.082;2022-07-06T05:38:59;2.80;;;2.30;;
67640;SDS011;54434;50.096;20.082;2022-07-06T05:41:35;4.10;;;2.30;;
67640;SDS011;54434;50.096;20.082;2022-07-06T05:44:11;2.90;;;2.30;;
67640;SDS011;54434;50.096;20.082;2022-07-06T05:46:48;3.20;;;2.30;;
67640;SDS011;54434;50.096;20.082;2022-07-06T05:49:24;5.00;;;2.90;;
67640;SDS011;54434;50.096;20.082;2022-07-06T05:52:18;4.10;;;2.60;;
67640;SDS011;54434;50.096;20.082;2022-07-06T05:54:54;3.80;;;2.50;;
67640;SDS011;54434;50.096;20.082;2022-07-06T05:57:30;3.50;;;2.10;;
67640;SDS011;54434;50.096;20.082;2022-07-06T06:00:09;3.70;;;2.40;;
67640;SDS011;54434;50.096;20.082;2022-07-06T06:02:50;4.10;;;2.50;;
67640;SDS011;54434;50.096;20.082;2022-07-06T06:05:27;4.50;;;2.50;;
67640;SDS011;54434;50.096;20.082;2022-07-06T06:08:08;4.70;;;2.80;;
67640;SDS011;54434;50.096;20.082;2022-07-06T06:10:44;2.90;;;2.30;;
67640;SDS011;54434;50.096;20.082;2022-07-06T06:13:23;6.00;;;2.80;;
67640;SDS011;54434;50.096;20.082;2022-07-06T06:15:59;3.90;;;2.70;;
67640;SDS011;54434;50.096;20.082;2022-07-06T06:18:35;3.70;;;2.40;;
67640;SDS011;54434;50.096;20.082;2022-07-06T06:21:14;5.10;;;2.70;;
67640;SDS011;54434;50.096;20.082;2022-07-06T06:23:57;4.90;;;3.00;;
67640;SDS011;54434;50.096;20.082;2022-07-06T06:26:33;4.40;;;3.00;;
67640;SDS011;54434;50.096;20.082;2022-07-06T06:29:09;5.10;;;3.00;;
67640;SDS011;54434;50.096;20.082;2022-07-06T06:31:46;4.50;;;3.10;;
67640;SDS011;54434;50.096;20.082;2022-07-06T06:34:23;5.40;;;2.90;;
67640;SDS011;54434;50.096;20.082;2022-07-06T06:36:59;5.70;;;3.40;;
67640;SDS011;54434;50.096;20.082;2022-07-06T06:39:35;6.30;;;3.30;;
67640;SDS011;54434;50.096;20.082;2022-07-06T06:42:11;6.80;;;3.50;;
67640;SDS011;54434;50.096;20.082;2022-07-06T06:44:47;5.60;;;3.60;;
67640;SDS011;54434;50.096;20.082;2022-07-06T06:47:23;6.40;;;3.90;;
67640;SDS011;54434;50.096;20.082;2022-07-06T06:49:59;5.30;;;3.70;;
67640;SDS011;54434;50.096;20.082;2022-07-06T06:52:35;6.80;;;3.80;;
67640;SDS011;54434;50.096;20.082;2022-07-06T06:55:13;6.30;;;3.50;;
67640;SDS011;54434;50.096;20.082;2022-07-06T06:57:49;6.60;;;4.00;;
67640;SDS011;54434;50.096;20.082;2022-07-06T07:00:25;7.10;;;3.10;;
67640;SDS011;54434;50.096;20.082;2022-07-06T07:03:01;4.90;;;3.60;;
67640;SDS011;54434;50.096;20.082;2022-07-06T07:05:38;8.70;;;3.80;;
67640;SDS011;54434;50.096;20.082;2022-07-06T07:08:14;5.20;;;3.10;;
67640;SDS011;54434;50.096;20.082;2022-07-06T07:10:50;5.70;;;3.20;;
67640;SDS011;54434;50.096;20.082;2022-07-06T07:13:26;7.00;;;3.10;;
67640;SDS011;54434;50.096;20.082;2022-07-06T07:16:02;4.20;;;3.00;;
67640;SDS011;54434;50.096;20.082;2022-07-06T07:18:39;3.90;;;2.80;;
67640;SDS011;54434;50.096;20.082;2022-07-06T07:21:15;4.80;;;2.80;;
67640;SDS011;54434;50.096;20.082;2022-07-06T07:23:51;5.60;;;2.90;;
67640;SDS011;54434;50.096;20.082;2022-07-06T07:26:27;3.80;;;2.20;;
67640;SDS011;54434;50.096;20.082;2022-07-06T07:29:03;5.00;;;2.80;;
67640;SDS011;54434;50.096;20.082;2022-07-06T07:31:40;5.20;;;2.60;;
67640;SDS011;54434;50.096;20.082;2022-07-06T07:34:16;4.00;;;2.70;;
67640;SDS011;54434;50.096;20.082;2022-07-06T07:36:52;4.00;;;2.70;;
67640;SDS011;54434;50.096;20.082;2022-07-06T07:39:28;5.40;;;2.70;;
67640;SDS011;54434;50.096;20.082;2022-07-06T07:42:05;4.40;;;2.70;;
67640;SDS011;54434;50.096;20.082;2022-07-06T07:44:49;5.90;;;2.80;;
67640;SDS011;54434;50.096;20.082;2022-07-06T07:47:25;3.70;;;2.30;;
67640;SDS011;54434;50.096;20.082;2022-07-06T07:50:02;4.70;;;2.80;;
67640;SDS011;54434;50.096;20.082;2022-07-06T07:52:38;4.30;;;2.80;;
67640;SDS011;54434;50.096;20.082;2022-07-06T07:55:14;5.30;;;2.80;;
67640;SDS011;54434;50.096;20.082;2022-07-06T07:58:10;4.30;;;2.50;;
67640;SDS011;54434;50.096;20.082;2022-07-06T08:00:46;3.80;;;2.60;;
67640;SDS011;54434;50.096;20.082;2022-07-06T08:03:23;4.10;;;2.40;;
67640;SDS011;54434;50.096;20.082;2022-07-06T08:05:59;7.90;;;3.00;;
67640;SDS011;54434;50.096;20.082;2022-07-06T08:08:35;4.80;;;2.40;;
67640;SDS011;54434;50.096;20.082;2022-07-06T08:11:11;4.60;;;2.40;;
67640;SDS011;54434;50.096;20.082;2022-07-06T08:13:51;4.90;;;2.60;;
67640;SDS011;54434;50.096;20.082;2022-07-06T08:16:27;4.50;;;2.30;;
67640;SDS011;54434;50.096;20.082;2022-07-06T08:19:03;4.00;;;2.40;;
67640;SDS011;54434;50.096;20.082;2022-07-06T08:21:43;5.50;;;2.30;;
67640;SDS011;54434;50.096;20.082;2022-07-06T08:24:20;5.20;;;2.70;;
67640;SDS011;54434;50.096;20.082;2022-07-06T08:26:57;6.20;;;2.60;;
67640;SDS011;54434;50.096;20.082;2022-07-06T08:29:33;5.10;;;2.90;;
67640;SDS011;54434;50.096;20.082;2022-07-06T08:32:10;7.40;;;2.80;;
67640;SDS011;54434;50.096;20.082;2022-07-06T08:35:02;3.00;;;2.40;;
67640;SDS011;54434;50.096;20.082;2022-07-06T08:37:39;3.70;;;2.40;;
67640;SDS011;54434;50.096;20.082;2022-07-06T08:40:16;3.50;;;2.40;;
67640;SDS011;54434;50.096;20.082;2022-07-06T08:42:54;3.60;;;2.50;;
67640;SDS011;54434;50.096;20.082;2022-07-06T08:45:32;4.90;;;2.40;;
67640;SDS011;54434;50.096;20.082;2022-07-06T08:48:11;4.10;;;2.30;;
67640;SDS011;54434;50.096;20.082;2022-07-06T08:50:47;3.90;;;2.50;;
67640;SDS011;54434;50.096;20.082;2022-07-06T08:53:25;4.70;;;2.70;;
67640;SDS011;54434;50.096;20.082;2022-07-06T08:56:02;6.10;;;3.30;;
67640;SDS011;54434;50.096;20.082;2022-07-06T08:58:39;5.70;;;3.00;;
67640;SDS011;54434;50.096;20.082;2022-07-06T09:01:15;4.40;;;2.70;;
67640;SDS011;54434;50.096;20.082;2022-07-06T09:03:55;4.50;;;2.70;;
67640;SDS011;54434;50.096;20.082;2022-07-06T09:06:34;5.30;;;2.80;;
67640;SDS011;54434;50.096;20.082;2022-07-06T09:09:11;5.30;;;3.20;;
67640;SDS011;54434;50.096;20.082;2022-07-06T09:11:52;6.90;;;3.10;;
67640;SDS011;54434;50.096;20.082;2022-07-06T09:14:35;7.10;;;4.60;;
67640;SDS011;54434;50.096;20.082;2022-07-06T09:17:13;11.20;;;6.60;;
67640;SDS011;54434;50.096;20.082;2022-07-06T09:19:49;11.70;;;7.30;;
67640;SDS011;54434;50.096;20.082;2022-07-06T09:22:31;9.40;;;8.10;;
67640;SDS011;54434;50.096;20.082;2022-07-06T09:27:48;10.60;;;8.70;;
67640;SDS011;54434;50.096;20.082;2022-07-06T09:30:28;10.60;;;8.90;;
67640;SDS011;54434;50.096;20.082;2022-07-06T09:33:04;13.20;;;9.70;;
67640;SDS011;54434;50.096;20.082;2022-07-06T09:35:45;15.70;;;10.60;;
67640;SDS011;54434;50.096;20.082;2022-07-06T09:38:22;16.60;;;10.80;;
67640;SDS011;54434;50.096;20.082;2022-07-06T09:41:02;17.30;;;11.90;;
67640;SDS011;54434;50.096;20.082;2022-07-06T09:43:38;18.50;;;11.90;;
67640;SDS011;54434;50.096;20.082;2022-07-06T09:46:16;18.50;;;13.10;;
67640;SDS011;54434;50.096;20.082;2022-07-06T09:48:54;16.10;;;12.40;;
67640;SDS011;54434;50.096;20.082;2022-07-06T09:51:37;17.80;;;12.10;;
67640;SDS011;54434;50.096;20.082;2022-07-06T09:54:14;16.00;;;12.00;;
67640;SDS011;54434;50.096;20.082;2022-07-06T09:56:51;13.00;;;10.50;;
67640;SDS011;54434;50.096;20.082;2022-07-06T09:59:30;17.00;;;12.50;;
67640;SDS011;54434;50.096;20.082;2022-07-06T10:02:08;20.10;;;10.80;;
67640;SDS011;54434;50.096;20.082;2022-07-06T10:04:48;13.00;;;9.70;;
67640;SDS011;54434;50.096;20.082;2022-07-06T10:07:26;11.40;;;8.50;;
67640;SDS011;54434;50.096;20.082;2022-07-06T10:10:03;12.30;;;8.20;;
67640;SDS011;54434;50.096;20.082;2022-07-06T10:12:42;9.10;;;7.50;;
67640;SDS011;54434;50.096;20.082;2022-07-06T10:15:24;13.70;;;8.50;;
67640;SDS011;54434;50.096;20.082;2022-07-06T10:18:05;11.40;;;6.90;;
67640;SDS011;54434;50.096;20.082;2022-07-06T10:20:42;12.80;;;8.50;;
67640;SDS011;54434;50.096;20.082;2022-07-06T10:23:19;12.40;;;9.40;;
67640;SDS011;54434;50.096;20.082;2022-07-06T10:25:58;10.50;;;8.30;;
67640;SDS011;54434;50.096;20.082;2022-07-06T10:28:36;11.40;;;8.70;;
67640;SDS011;54434;50.096;20.082;2022-07-06T10:31:14;14.40;;;8.10;;
67640;SDS011;54434;50.096;20.082;2022-07-06T10:33:52;12.50;;;8.60;;
67640;SDS011;54434;50.096;20.082;2022-07-06T10:36:29;11.20;;;8.00;;
67640;SDS011;54434;50.096;20.082;2022-07-06T10:39:05;8.90;;;7.00;;
67640;SDS011;54434;50.096;20.082;2022-07-06T10:42:00;11.80;;;6.10;;
67640;SDS011;54434;50.096;20.082;2022-07-06T10:44:46;9.70;;;5.90;;
67640;SDS011;54434;50.096;20.082;2022-07-06T10:47:28;8.10;;;5.50;;
67640;SDS011;54434;50.096;20.082;2022-07-06T10:50:06;8.00;;;5.20;;
67640;SDS011;54434;50.096;20.082;2022-07-06T10:52:57;10.30;;;5.60;;
67640;SDS011;54434;50.096;20.082;2022-07-06T10:55:35;8.70;;;5.50;;
67640;SDS011;54434;50.096;20.082;2022-07-06T10:58:12;11.20;;;6.40;;
67640;SDS011;54434;50.096;20.082;2022-07-06T11:00:56;12.10;;;6.10;;
67640;SDS011;54434;50.096;20.082;2022-07-06T11:03:36;10.70;;;5.90;;
67640;SDS011;54434;50.096;20.082;2022-07-06T11:06:18;8.90;;;6.50;;
67640;SDS011;54434;50.096;20.082;2022-07-06T11:08:57;7.40;;;5.20;;
67640;SDS011;54434;50.096;20.082;2022-07-06T11:11:44;8.30;;;5.30;;
67640;SDS011;54434;50.096;20.082;2022-07-06T11:14:24;6.90;;;4.80;;
67640;SDS011;54434;50.096;20.082;2022-07-06T11:17:10;6.80;;;5.10;;
67640;SDS011;54434;50.096;20.082;2022-07-06T11:19:59;8.40;;;4.80;;
67640;SDS011;54434;50.096;20.082;2022-07-06T11:22:45;8.70;;;4.50;;
67640;SDS011;54434;50.096;20.082;2022-07-06T11:25:21;9.60;;;4.90;;
67640;SDS011;54434;50.096;20.082;2022-07-06T11:27:57;9.90;;;4.30;;
67640;SDS011;54434;50.096;20.082;2022-07-06T11:30:33;7.70;;;4.70;;
67640;SDS011;54434;50.096;20.082;2022-07-06T11:33:10;5.30;;;4.10;;
67640;SDS011;54434;50.096;20.082;2022-07-06T11:36:18;6.20;;;4.70;;
67640;SDS011;54434;50.096;20.082;2022-07-06T11:38:56;8.80;;;5.00;;
67640;SDS011;54434;50.096;20.082;2022-07-06T11:41:32;6.40;;;5.30;;
67640;SDS011;54434;50.096;20.082;2022-07-06T11:44:10;8.10;;;5.20;;
67640;SDS011;54434;50.096;20.082;2022-07-06T11:46:46;7.80;;;4.90;;
67640;SDS011;54434;50.096;20.082;2022-07-06T11:49:22;7.10;;;4.30;;
67640;SDS011;54434;50.096;20.082;2022-07-06T11:51:59;8.10;;;4.70;;
67640;SDS011;54434;50.096;20.082;2022-07-06T11:54:40;7.80;;;4.50;;
67640;SDS011;54434;50.096;20.082;2022-07-06T11:57:16;8.10;;;5.00;;
67640;SDS011;54434;50.096;20.082;2022-07-06T11:59:52;11.40;;;5.50;;
67640;SDS011;54434;50.096;20.082;2022-07-06T12:02:29;7.50;;;5.50;;
67640;SDS011;54434;50.096;20.082;2022-07-06T12:05:07;9.60;;;5.30;;
67640;SDS011;54434;50.096;20.082;2022-07-06T12:07:43;8.30;;;4.90;;
67640;SDS011;54434;50.096;20.082;2022-07-06T12:10:33;8.10;;;4.40;;
67640;SDS011;54434;50.096;20.082;2022-07-06T12:13:10;6.30;;;4.40;;
67640;SDS011;54434;50.096;20.082;2022-07-06T12:15:46;6.60;;;3.90;;
67640;SDS011;54434;50.096;20.082;2022-07-06T12:18:37;6.90;;;3.90;;
67640;SDS011;54434;50.096;20.082;2022-07-06T12:21:17;8.30;;;4.20;;
67640;SDS011;54434;50.096;20.082;2022-07-06T12:23:55;4.90;;;3.70;;
67640;SDS011;54434;50.096;20.082;2022-07-06T12:26:42;7.60;;;4.00;;
67640;SDS011;54434;50.096;20.082;2022-07-06T12:29:18;7.20;;;4.60;;
67640;SDS011;54434;50.096;20.082;2022-07-06T12:31:57;7.30;;;4.00;;
67640;SDS011;54434;50.096;20.082;2022-07-06T12:34:34;9.40;;;3.80;;
67640;SDS011;54434;50.096;20.082;2022-07-06T12:37:12;7.70;;;3.60;;
67640;SDS011;54434;50.096;20.082;2022-07-06T12:39:49;7.90;;;3.30;;
67640;SDS011;54434;50.096;20.082;2022-07-06T12:42:25;4.70;;;3.00;;
67640;SDS011;54434;50.096;20.082;2022-07-06T12:45:02;6.10;;;2.90;;
67640;SDS011;54434;50.096;20.082;2022-07-06T12:47:46;5.30;;;2.70;;
67640;SDS011;54434;50.096;20.082;2022-07-06T12:50:38;4.30;;;2.70;;
67640;SDS011;54434;50.096;20.082;2022-07-06T12:53:28;6.90;;;2.70;;
67640;SDS011;54434;50.096;20.082;2022-07-06T12:56:14;8.00;;;2.90;;
67640;SDS011;54434;50.096;20.082;2022-07-06T12:59:01;4.30;;;2.10;;
67640;SDS011;54434;50.096;20.082;2022-07-06T13:01:47;4.70;;;2.30;;
67640;SDS011;54434;50.096;20.082;2022-07-06T13:04:25;4.80;;;2.10;;
67640;SDS011;54434;50.096;20.082;2022-07-06T13:07:04;4.40;;;2.10;;
67640;SDS011;54434;50.096;20.082;2022-07-06T13:09:41;3.30;;;2.30;;
67640;SDS011;54434;50.096;20.082;2022-07-06T13:12:17;4.40;;;2.70;;
67640;SDS011;54434;50.096;20.082;2022-07-06T13:14:54;4.20;;;2.40;;
67640;SDS011;54434;50.096;20.082;2022-07-06T13:17:30;5.60;;;2.70;;
67640;SDS011;54434;50.096;20.082;2022-07-06T13:20:11;5.20;;;2.60;;
67640;SDS011;54434;50.096;20.082;2022-07-06T13:22:50;7.50;;;2.40;;
67640;SDS011;54434;50.096;20.082;2022-07-06T13:25:26;4.40;;;2.40;;
67640;SDS011;54434;50.096;20.082;2022-07-06T13:28:02;5.80;;;2.70;;
67640;SDS011;54434;50.096;20.082;2022-07-06T13:30:38;5.00;;;2.90;;
67640;SDS011;54434;50.096;20.082;2022-07-06T13:33:14;7.00;;;3.40;;
67640;SDS011;54434;50.096;20.082;2022-07-06T13:35:50;6.90;;;2.90;;
67640;SDS011;54434;50.096;20.082;2022-07-06T13:38:26;3.80;;;2.60;;
67640;SDS011;54434;50.096;20.082;2022-07-06T13:41:02;6.10;;;2.60;;
67640;SDS011;54434;50.096;20.082;2022-07-06T13:43:38;4.80;;;2.40;;
67640;SDS011;54434;50.096;20.082;2022-07-06T13:46:14;4.60;;;2.50;;
67640;SDS011;54434;50.096;20.082;2022-07-06T13:48:51;5.00;;;2.70;;
67640;SDS011;54434;50.096;20.082;2022-07-06T13:51:28;8.50;;;2.80;;
67640;SDS011;54434;50.096;20.082;2022-07-06T13:54:05;7.40;;;3.00;;
67640;SDS011;54434;50.096;20.082;2022-07-06T13:56:42;5.10;;;3.40;;
67640;SDS011;54434;50.096;20.082;2022-07-06T13:59:18;4.10;;;3.00;;
67640;SDS011;54434;50.096;20.082;2022-07-06T14:01:54;8.10;;;3.20;;
67640;SDS011;54434;50.096;20.082;2022-07-06T14:04:30;6.70;;;3.40;;
67640;SDS011;54434;50.096;20.082;2022-07-06T14:07:07;8.10;;;3.40;;
67640;SDS011;54434;50.096;20.082;2022-07-06T14:09:45;6.70;;;3.30;;
67640;SDS011;54434;50.096;20.082;2022-07-06T14:12:25;4.30;;;2.90;;
67640;SDS011;54434;50.096;20.082;2022-07-06T14:15:02;5.50;;;3.40;;
67640;SDS011;54434;50.096;20.082;2022-07-06T14:17:39;4.70;;;2.90;;
67640;SDS011;54434;50.096;20.082;2022-07-06T14:20:16;7.30;;;3.30;;
67640;SDS011;54434;50.096;20.082;2022-07-06T14:22:52;5.60;;;2.90;;
67640;SDS011;54434;50.096;20.082;2022-07-06T14:25:28;5.50;;;3.20;;
67640;SDS011;54434;50.096;20.082;2022-07-06T14:28:05;5.30;;;2.80;;
67640;SDS011;54434;50.096;20.082;2022-07-06T14:30:42;3.40;;;2.70;;
67640;SDS011;54434;50.096;20.082;2022-07-06T14:33:19;5.30;;;2.80;;
67640;SDS011;54434;50.096;20.082;2022-07-06T14:35:55;3.50;;;2.50;;
67640;SDS011;54434;50.096;20.082;2022-07-06T14:38:32;4.70;;;2.60;;
67640;SDS011;54434;50.096;20.082;2022-07-06T14:41:08;4.20;;;2.70;;
67640;SDS011;54434;50.096;20.082;2022-07-06T14:43:45;3.40;;;2.50;;
67640;SDS011;54434;50.096;20.082;2022-07-06T14:46:21;3.70;;;2.50;;
67640;SDS011;54434;50.096;20.082;2022-07-06T14:48:58;9.00;;;2.80;;
67640;SDS011;54434;50.096;20.082;2022-07-06T14:51:34;3.80;;;2.50;;
67640;SDS011;54434;50.096;20.082;2022-07-06T14:54:10;4.50;;;2.80;;
67640;SDS011;54434;50.096;20.082;2022-07-06T14:56:46;3.00;;;2.20;;
67640;SDS011;54434;50.096;20.082;2022-07-06T14:59:22;5.40;;;3.10;;
67640;SDS011;54434;50.096;20.082;2022-07-06T15:01:58;6.70;;;3.10;;
67640;SDS011;54434;50.096;20.082;2022-07-06T15:04:35;4.40;;;2.70;;
67640;SDS011;54434;50.096;20.082;2022-07-06T15:07:11;4.00;;;2.80;;
67640;SDS011;54434;50.096;20.082;2022-07-06T15:09:47;5.40;;;3.20;;
67640;SDS011;54434;50.096;20.082;2022-07-06T15:12:23;6.00;;;3.20;;
67640;SDS011;54434;50.096;20.082;2022-07-06T15:14:59;4.70;;;2.90;;
67640;SDS011;54434;50.096;20.082;2022-07-06T15:17:35;3.80;;;2.70;;
67640;SDS011;54434;50.096;20.082;2022-07-06T15:20:13;5.20;;;2.70;;
67640;SDS011;54434;50.096;20.082;2022-07-06T15:22:49;4.80;;;2.70;;
67640;SDS011;54434;50.096;20.082;2022-07-06T15:25:25;4.00;;;3.00;;
67640;SDS011;54434;50.096;20.082;2022-07-06T15:28:01;5.90;;;2.70;;
67640;SDS011;54434;50.096;20.082;2022-07-06T15:30:38;5.00;;;2.50;;
67640;SDS011;54434;50.096;20.082;2022-07-06T15:33:14;4.50;;;2.60;;
67640;SDS011;54434;50.096;20.082;2022-07-06T15:35:50;4.00;;;2.80;;